sensor_id;sensor_type;location;lat;lon;timestamp;temperature;humidity
7598;DHT22;3840;59.32098800;18.06423600;2022-07-10T00:00:25;14.70;99.90
7598;DHT22;3840;59.32098800;18.06423600;2022-07-10T00:02:52;14.70;99.90
7598;DHT22;3840;59.32098800;18.06423600;2022-07-10T00:05:18;14.70;99.90
7598;DHT22;3840;59.32098800;18.06423600;2022-07-10T00:07:44;14.70;99.90
7598;DHT22;3840;59.32098800;18.06423600;2022-07-10T00:10:10;14.60;99.90
7598;DHT22;3840;59.32098800;18.06423600;2022-07-10T00:12:37;14.50;99.90
7598;DHT22;3840;59.32098800;18.06423600;2022-07-10T00:15:03;14.50;99.90
7598;DHT22;3840;59.32098800;18.06423600;2022-07-10T00:17:30;14.50;99.90
7598;DHT22;3840;59.32098800;18.06423600;2022-07-10T00:19:56;14.40;99.90
7598;DHT22;3840;59.32098800;18.06423600;2022-07-10T00:22:22;14.40;99.90
7598;DHT22;3840;59.32098800;18.06423600;2022-07-10T00:24:48;14.40;99.90
7598;DHT22;3840;59.32098800;18.06423600;2022-07-10T00:27:16;13.30;99.90
7598;DHT22;3840;59.32098800;18.06423600;2022-07-10T00:29:42;14.30;99.90
7598;DHT22;3840;59.32098800;18.06423600;2022-07-10T00:32:07;14.10;99.90
7598;DHT22;3840;59.32098800;18.06423600;2022-07-10T00:34:33;14.30;99.90
7598;DHT22;3840;59.32098800;18.06423600;2022-07-10T00:36:59;14.20;99.90
7598;DHT22;3840;59.32098800;18.06423600;2022-07-10T00:39:25;14.20;99.90
7598;DHT22;3840;59.32098800;18.06423600;2022-07-10T00:41:51;14.20;99.90
7598;DHT22;3840;59.32098800;18.06423600;2022-07-10T00:44:17;14.10;99.90
7598;DHT22;3840;59.32098800;18.06423600;2022-07-10T00:46:43;14.10;99.90
7598;DHT22;3840;59.32098800;18.06423600;2022-07-10T00:49:08;14.20;99.90
7598;DHT22;3840;59.32098800;18.06423600;2022-07-10T00:51:34;14.20;99.90
7598;DHT22;3840;59.32098800;18.06423600;2022-07-10T00:54:00;14.10;99.90
7598;DHT22;3840;59.32098800;18.06423600;2022-07-10T00:56:27;14.00;99.90
7598;DHT22;3840;59.32098800;18.06423600;2022-07-10T00:58:54;14.00;99.90
7598;DHT22;3840;59.32098800;18.06423600;2022-07-10T01:01:20;13.90;99.90
7598;DHT22;3840;59.32098800;18.06423600;2022-07-10T01:03:48;13.90;99.90
7598;DHT22;3840;59.32098800;18.06423600;2022-07-10T01:06:14;13.90;99.90
7598;DHT22;3840;59.32098800;18.06423600;2022-07-10T01:08:41;13.80;99.90
7598;DHT22;3840;59.32098800;18.06423600;2022-07-10T01:11:08;13.80;99.90
7598;DHT22;3840;59.32098800;18.06423600;2022-07-10T01:13:34;13.80;99.90
7598;DHT22;3840;59.32098800;18.06423600;2022-07-10T01:16:00;13.80;99.90
7598;DHT22;3840;59.32098800;18.06423600;2022-07-10T01:18:26;13.80;99.90
7598;DHT22;3840;59.32098800;18.06423600;2022-07-10T01:20:53;13.80;99.90
7598;DHT22;3840;59.32098800;18.06423600;2022-07-10T01:23:19;13.70;99.90
7598;DHT22;3840;59.32098800;18.06423600;2022-07-10T01:25:45;13.70;99.90
7598;DHT22;3840;59.32098800;18.06423600;2022-07-10T01:28:11;13.70;99.90
7598;DHT22;3840;59.32098800;18.06423600;2022-07-10T01:30:37;13.60;99.90
7598;DHT22;3840;59.32098800;18.06423600;2022-07-10T01:33:02;13.60;99.90
7598;DHT22;3840;59.32098800;18.06423600;2022-07-10T01:35:28;13.60;99.90
7598;DHT22;3840;59.32098800;18.06423600;2022-07-10T01:37:54;13.60;99.90
7598;DHT22;3840;59.32098800;18.06423600;2022-07-10T01:40:19;13.60;99.90
7598;DHT22;3840;59.32098800;18.06423600;2022-07-10T01:42:46;13.50;99.90
7598;DHT22;3840;59.32098800;18.06423600;2022-07-10T01:45:12;13.60;99.90
7598;DHT22;3840;59.32098800;18.06423600;2022-07-10T01:47:37;13.60;99.90
7598;DHT22;3840;59.32098800;18.06423600;2022-07-10T01:50:04;13.60;99.90
7598;DHT22;3840;59.32098800;18.06423600;2022-07-10T01:52:30;13.50;99.90
7598;DHT22;3840;59.32098800;18.06423600;2022-07-10T01:54:56;13.50;99.90
7598;DHT22;3840;59.32098800;18.06423600;2022-07-10T01:57:22;13.50;99.90
7598;DHT22;3840;59.32098800;18.06423600;2022-07-10T01:59:47;13.60;99.90
7598;DHT22;3840;59.32098800;18.06423600;2022-07-10T02:02:13;13.60;99.90
7598;DHT22;3840;59.32098800;18.06423600;2022-07-10T02:04:39;13.70;99.90
7598;DHT22;3840;59.32098800;18.06423600;2022-07-10T02:07:12;13.70;99.90
7598;DHT22;3840;59.32098800;18.06423600;2022-07-10T02:09:39;13.80;99.90
7598;DHT22;3840;59.32098800;18.06423600;2022-07-10T02:12:13;13.80;99.90
7598;DHT22;3840;59.32098800;18.06423600;2022-07-10T02:14:40;13.90;99.90
7598;DHT22;3840;59.32098800;18.06423600;2022-07-10T02:17:07;14.00;99.90
7598;DHT22;3840;59.32098800;18.06423600;2022-07-10T02:19:33;13.90;99.90
7598;DHT22;3840;59.32098800;18.06423600;2022-07-10T02:21:59;14.00;99.90
7598;DHT22;3840;59.32098800;18.06423600;2022-07-10T02:24:25;14.00;99.90
7598;DHT22;3840;59.32098800;18.06423600;2022-07-10T02:26:51;14.10;99.90
7598;DHT22;3840;59.32098800;18.06423600;2022-07-10T02:29:17;14.00;99.90
7598;DHT22;3840;59.32098800;18.06423600;2022-07-10T02:31:43;14.10;99.90
7598;DHT22;3840;59.32098800;18.06423600;2022-07-10T02:34:11;14.10;99.90
7598;DHT22;3840;59.32098800;18.06423600;2022-07-10T02:36:37;13.90;99.90
7598;DHT22;3840;59.32098800;18.06423600;2022-07-10T02:39:07;13.80;99.90
7598;DHT22;3840;59.32098800;18.06423600;2022-07-10T02:41:33;13.80;99.90
7598;DHT22;3840;59.32098800;18.06423600;2022-07-10T02:43:59;13.80;99.90
7598;DHT22;3840;59.32098800;18.06423600;2022-07-10T02:46:25;13.80;99.90
7598;DHT22;3840;59.32098800;18.06423600;2022-07-10T02:48:51;14.00;99.90
7598;DHT22;3840;59.32098800;18.06423600;2022-07-10T02:51:16;14.60;99.90
7598;DHT22;3840;59.32098800;18.06423600;2022-07-10T02:53:42;14.60;99.90
7598;DHT22;3840;59.32098800;18.06423600;2022-07-10T02:56:08;14.40;99.90
7598;DHT22;3840;59.32098800;18.06423600;2022-07-10T02:58:34;14.40;99.90
7598;DHT22;3840;59.32098800;18.06423600;2022-07-10T03:01:00;14.90;99.90
7598;DHT22;3840;59.32098800;18.06423600;2022-07-10T03:03:25;15.50;99.90
7598;DHT22;3840;59.32098800;18.06423600;2022-07-10T03:05:51;15.80;99.90
7598;DHT22;3840;59.32098800;18.06423600;2022-07-10T03:08:17;15.70;99.90
7598;DHT22;3840;59.32098800;18.06423600;2022-07-10T03:10:43;15.90;99.90
7598;DHT22;3840;59.32098800;18.06423600;2022-07-10T03:13:09;15.70;99.90
7598;DHT22;3840;59.32098800;18.06423600;2022-07-10T03:15:35;15.10;99.90
7598;DHT22;3840;59.32098800;18.06423600;2022-07-10T03:18:01;14.70;99.90
7598;DHT22;3840;59.32098800;18.06423600;2022-07-10T03:20:26;14.40;99.90
7598;DHT22;3840;59.32098800;18.06423600;2022-07-10T03:22:52;14.10;99.90
7598;DHT22;3840;59.32098800;18.06423600;2022-07-10T03:25:18;14.00;99.90
7598;DHT22;3840;59.32098800;18.06423600;2022-07-10T03:27:44;13.90;99.90
7598;DHT22;3840;59.32098800;18.06423600;2022-07-10T03:30:10;13.80;99.90
7598;DHT22;3840;59.32098800;18.06423600;2022-07-10T03:32:36;13.70;99.90
7598;DHT22;3840;59.32098800;18.06423600;2022-07-10T03:35:02;13.60;99.90
7598;DHT22;3840;59.32098800;18.06423600;2022-07-10T03:37:28;13.60;99.90
7598;DHT22;3840;59.32098800;18.06423600;2022-07-10T03:39:53;13.70;99.90
7598;DHT22;3840;59.32098800;18.06423600;2022-07-10T03:42:19;13.80;99.90
7598;DHT22;3840;59.32098800;18.06423600;2022-07-10T03:44:45;13.80;99.90
7598;DHT22;3840;59.32098800;18.06423600;2022-07-10T03:47:11;13.70;99.90
7598;DHT22;3840;59.32098800;18.06423600;2022-07-10T03:49:37;12.10;99.90
7598;DHT22;3840;59.32098800;18.06423600;2022-07-10T03:52:04;13.70;99.90
7598;DHT22;3840;59.32098800;18.06423600;2022-07-10T03:54:30;13.70;99.90
7598;DHT22;3840;59.32098800;18.06423600;2022-07-10T03:56:57;13.70;99.90
7598;DHT22;3840;59.32098800;18.06423600;2022-07-10T03:59:41;13.90;99.90
7598;DHT22;3840;59.32098800;18.06423600;2022-07-10T04:02:08;14.00;99.90
7598;DHT22;3840;59.32098800;18.06423600;2022-07-10T04:04:34;14.20;99.90
7598;DHT22;3840;59.32098800;18.06423600;2022-07-10T04:07:00;14.50;99.90
7598;DHT22;3840;59.32098800;18.06423600;2022-07-10T04:09:25;15.10;99.90
7598;DHT22;3840;59.32098800;18.06423600;2022-07-10T04:11:51;16.40;99.90
7598;DHT22;3840;59.32098800;18.06423600;2022-07-10T04:14:17;17.10;99.90
7598;DHT22;3840;59.32098800;18.06423600;2022-07-10T04:16:42;17.80;99.90
7598;DHT22;3840;59.32098800;18.06423600;2022-07-10T04:19:08;17.90;99.90
7598;DHT22;3840;59.32098800;18.06423600;2022-07-10T04:21:34;17.90;99.90
7598;DHT22;3840;59.32098800;18.06423600;2022-07-10T04:24:00;18.50;99.90
7598;DHT22;3840;59.32098800;18.06423600;2022-07-10T04:26:25;18.90;99.90
7598;DHT22;3840;59.32098800;18.06423600;2022-07-10T04:28:51;19.50;99.90
7598;DHT22;3840;59.32098800;18.06423600;2022-07-10T04:31:17;20.40;99.90
7598;DHT22;3840;59.32098800;18.06423600;2022-07-10T04:33:42;20.10;99.90
7598;DHT22;3840;59.32098800;18.06423600;2022-07-10T04:36:08;21.00;99.90
7598;DHT22;3840;59.32098800;18.06423600;2022-07-10T04:38:34;21.10;99.90
7598;DHT22;3840;59.32098800;18.06423600;2022-07-10T04:41:00;20.80;99.90
7598;DHT22;3840;59.32098800;18.06423600;2022-07-10T04:43:26;21.60;99.90
7598;DHT22;3840;59.32098800;18.06423600;2022-07-10T04:45:51;21.50;99.90
7598;DHT22;3840;59.32098800;18.06423600;2022-07-10T04:48:17;21.00;99.90
7598;DHT22;3840;59.32098800;18.06423600;2022-07-10T04:50:43;20.90;99.90
7598;DHT22;3840;59.32098800;18.06423600;2022-07-10T04:53:08;21.90;99.90
7598;DHT22;3840;59.32098800;18.06423600;2022-07-10T04:55:34;22.00;99.90
7598;DHT22;3840;59.32098800;18.06423600;2022-07-10T04:58:00;21.80;99.90
7598;DHT22;3840;59.32098800;18.06423600;2022-07-10T05:00:25;20.20;99.90
7598;DHT22;3840;59.32098800;18.06423600;2022-07-10T05:02:51;18.00;99.90
7598;DHT22;3840;59.32098800;18.06423600;2022-07-10T05:05:17;16.90;99.90
7598;DHT22;3840;59.32098800;18.06423600;2022-07-10T05:07:42;16.10;99.90
7598;DHT22;3840;59.32098800;18.06423600;2022-07-10T05:10:08;15.70;99.90
7598;DHT22;3840;59.32098800;18.06423600;2022-07-10T05:12:34;15.90;99.90
7598;DHT22;3840;59.32098800;18.06423600;2022-07-10T05:15:00;15.80;99.90
7598;DHT22;3840;59.32098800;18.06423600;2022-07-10T05:17:27;15.80;99.90
7598;DHT22;3840;59.32098800;18.06423600;2022-07-10T05:19:54;15.70;99.90
7598;DHT22;3840;59.32098800;18.06423600;2022-07-10T05:22:21;15.90;99.90
7598;DHT22;3840;59.32098800;18.06423600;2022-07-10T05:24:47;16.00;99.90
7598;DHT22;3840;59.32098800;18.06423600;2022-07-10T05:27:13;16.30;99.90
7598;DHT22;3840;59.32098800;18.06423600;2022-07-10T05:29:38;16.30;99.90
7598;DHT22;3840;59.32098800;18.06423600;2022-07-10T05:32:04;16.30;99.90
7598;DHT22;3840;59.32098800;18.06423600;2022-07-10T05:34:30;16.20;99.90
7598;DHT22;3840;59.32098800;18.06423600;2022-07-10T05:36:56;16.50;99.90
7598;DHT22;3840;59.32098800;18.06423600;2022-07-10T05:39:22;16.50;99.90
7598;DHT22;3840;59.32098800;18.06423600;2022-07-10T05:41:51;16.60;99.90
7598;DHT22;3840;59.32098800;18.06423600;2022-07-10T05:44:18;16.70;99.90
7598;DHT22;3840;59.32098800;18.06423600;2022-07-10T05:46:45;17.10;99.90
7598;DHT22;3840;59.32098800;18.06423600;2022-07-10T05:49:12;16.50;99.90
7598;DHT22;3840;59.32098800;18.06423600;2022-07-10T05:51:37;16.00;99.90
7598;DHT22;3840;59.32098800;18.06423600;2022-07-10T05:54:03;15.70;99.90
7598;DHT22;3840;59.32098800;18.06423600;2022-07-10T05:56:29;15.70;99.90
7598;DHT22;3840;59.32098800;18.06423600;2022-07-10T05:58:55;15.60;99.90
7598;DHT22;3840;59.32098800;18.06423600;2022-07-10T06:01:22;15.70;99.90
7598;DHT22;3840;59.32098800;18.06423600;2022-07-10T06:03:48;15.50;99.90
7598;DHT22;3840;59.32098800;18.06423600;2022-07-10T06:06:14;15.50;99.90
7598;DHT22;3840;59.32098800;18.06423600;2022-07-10T06:08:44;15.60;99.90
7598;DHT22;3840;59.32098800;18.06423600;2022-07-10T06:11:11;15.30;99.90
7598;DHT22;3840;59.32098800;18.06423600;2022-07-10T06:13:37;15.20;99.90
7598;DHT22;3840;59.32098800;18.06423600;2022-07-10T06:16:03;15.30;99.90
7598;DHT22;3840;59.32098800;18.06423600;2022-07-10T06:18:30;15.40;99.90
7598;DHT22;3840;59.32098800;18.06423600;2022-07-10T06:20:56;15.50;99.90
7598;DHT22;3840;59.32098800;18.06423600;2022-07-10T06:23:22;15.50;99.90
7598;DHT22;3840;59.32098800;18.06423600;2022-07-10T06:25:48;15.50;99.90
7598;DHT22;3840;59.32098800;18.06423600;2022-07-10T06:28:18;15.60;99.90
7598;DHT22;3840;59.32098800;18.06423600;2022-07-10T06:30:44;15.60;99.90
7598;DHT22;3840;59.32098800;18.06423600;2022-07-10T06:33:11;15.70;99.90
7598;DHT22;3840;59.32098800;18.06423600;2022-07-10T06:35:37;15.80;99.90
7598;DHT22;3840;59.32098800;18.06423600;2022-07-10T06:38:03;15.80;99.90
7598;DHT22;3840;59.32098800;18.06423600;2022-07-10T06:40:29;15.90;99.90
7598;DHT22;3840;59.32098800;18.06423600;2022-07-10T06:42:55;16.00;99.90
7598;DHT22;3840;59.32098800;18.06423600;2022-07-10T06:45:21;16.10;99.90
7598;DHT22;3840;59.32098800;18.06423600;2022-07-10T06:47:47;16.20;99.90
7598;DHT22;3840;59.32098800;18.06423600;2022-07-10T06:50:23;16.30;99.90
7598;DHT22;3840;59.32098800;18.06423600;2022-07-10T06:52:50;16.30;99.90
7598;DHT22;3840;59.32098800;18.06423600;2022-07-10T06:55:18;16.30;99.90
7598;DHT22;3840;59.32098800;18.06423600;2022-07-10T06:57:44;16.40;99.90
7598;DHT22;3840;59.32098800;18.06423600;2022-07-10T07:00:10;16.50;99.90
7598;DHT22;3840;59.32098800;18.06423600;2022-07-10T07:02:36;16.70;99.90
7598;DHT22;3840;59.32098800;18.06423600;2022-07-10T07:05:02;16.70;99.90
7598;DHT22;3840;59.32098800;18.06423600;2022-07-10T07:07:28;16.70;99.90
7598;DHT22;3840;59.32098800;18.06423600;2022-07-10T07:09:54;16.70;99.90
7598;DHT22;3840;59.32098800;18.06423600;2022-07-10T07:12:20;16.80;99.90
7598;DHT22;3840;59.32098800;18.06423600;2022-07-10T07:14:45;16.80;99.90
7598;DHT22;3840;59.32098800;18.06423600;2022-07-10T07:17:12;16.80;99.90
7598;DHT22;3840;59.32098800;18.06423600;2022-07-10T07:19:40;17.30;99.90
7598;DHT22;3840;59.32098800;18.06423600;2022-07-10T07:22:25;16.90;99.90
7598;DHT22;3840;59.32098800;18.06423600;2022-07-10T07:25:10;17.00;99.90
7598;DHT22;3840;59.32098800;18.06423600;2022-07-10T07:27:37;17.10;99.90
7598;DHT22;3840;59.32098800;18.06423600;2022-07-10T07:30:05;17.10;99.90
7598;DHT22;3840;59.32098800;18.06423600;2022-07-10T07:32:32;17.10;99.90
7598;DHT22;3840;59.32098800;18.06423600;2022-07-10T07:34:58;17.10;99.90
7598;DHT22;3840;59.32098800;18.06423600;2022-07-10T07:37:35;17.10;99.90
7598;DHT22;3840;59.32098800;18.06423600;2022-07-10T07:40:01;17.00;99.90
7598;DHT22;3840;59.32098800;18.06423600;2022-07-10T07:42:27;17.00;99.90
7598;DHT22;3840;59.32098800;18.06423600;2022-07-10T07:44:52;16.90;99.90
7598;DHT22;3840;59.32098800;18.06423600;2022-07-10T07:47:18;17.00;99.90
7598;DHT22;3840;59.32098800;18.06423600;2022-07-10T07:49:44;16.90;99.90
7598;DHT22;3840;59.32098800;18.06423600;2022-07-10T07:52:09;16.80;99.90
7598;DHT22;3840;59.32098800;18.06423600;2022-07-10T07:54:35;16.70;99.90
7598;DHT22;3840;59.32098800;18.06423600;2022-07-10T07:57:00;16.80;99.90
7598;DHT22;3840;59.32098800;18.06423600;2022-07-10T07:59:26;17.00;99.90
7598;DHT22;3840;59.32098800;18.06423600;2022-07-10T08:01:52;17.20;99.90
7598;DHT22;3840;59.32098800;18.06423600;2022-07-10T08:04:18;17.30;99.90
7598;DHT22;3840;59.32098800;18.06423600;2022-07-10T08:06:43;17.40;99.90
7598;DHT22;3840;59.32098800;18.06423600;2022-07-10T08:09:09;17.30;99.90
7598;DHT22;3840;59.32098800;18.06423600;2022-07-10T08:11:35;17.40;99.90
7598;DHT22;3840;59.32098800;18.06423600;2022-07-10T08:14:00;17.40;99.90
7598;DHT22;3840;59.32098800;18.06423600;2022-07-10T08:16:26;17.10;99.90
7598;DHT22;3840;59.32098800;18.06423600;2022-07-10T08:18:52;17.20;99.90
7598;DHT22;3840;59.32098800;18.06423600;2022-07-10T08:21:17;17.20;99.90
7598;DHT22;3840;59.32098800;18.06423600;2022-07-10T08:23:43;17.40;99.90
7598;DHT22;3840;59.32098800;18.06423600;2022-07-10T08:26:08;17.50;99.90
7598;DHT22;3840;59.32098800;18.06423600;2022-07-10T08:28:34;17.40;99.90
7598;DHT22;3840;59.32098800;18.06423600;2022-07-10T08:31:00;17.50;99.90
7598;DHT22;3840;59.32098800;18.06423600;2022-07-10T08:33:26;17.50;99.90
7598;DHT22;3840;59.32098800;18.06423600;2022-07-10T08:35:53;17.40;99.90
7598;DHT22;3840;59.32098800;18.06423600;2022-07-10T08:38:24;17.30;99.90
7598;DHT22;3840;59.32098800;18.06423600;2022-07-10T08:40:51;17.30;99.90
7598;DHT22;3840;59.32098800;18.06423600;2022-07-10T08:43:18;17.50;99.90
7598;DHT22;3840;59.32098800;18.06423600;2022-07-10T08:45:44;17.70;99.90
7598;DHT22;3840;59.32098800;18.06423600;2022-07-10T08:48:12;17.40;99.90
7598;DHT22;3840;59.32098800;18.06423600;2022-07-10T08:50:44;17.20;99.90
7598;DHT22;3840;59.32098800;18.06423600;2022-07-10T08:53:16;17.10;99.90
7598;DHT22;3840;59.32098800;18.06423600;2022-07-10T08:55:45;17.00;99.90
7598;DHT22;3840;59.32098800;18.06423600;2022-07-10T08:58:12;16.80;99.90
7598;DHT22;3840;59.32098800;18.06423600;2022-07-10T09:00:39;16.80;99.90
7598;DHT22;3840;59.32098800;18.06423600;2022-07-10T09:03:04;16.60;99.90
7598;DHT22;3840;59.32098800;18.06423600;2022-07-10T09:05:30;16.60;99.90
7598;DHT22;3840;59.32098800;18.06423600;2022-07-10T09:07:56;16.50;99.90
7598;DHT22;3840;59.32098800;18.06423600;2022-07-10T09:10:26;16.50;99.90
7598;DHT22;3840;59.32098800;18.06423600;2022-07-10T09:12:58;16.70;99.90
7598;DHT22;3840;59.32098800;18.06423600;2022-07-10T09:15:29;16.70;99.90
7598;DHT22;3840;59.32098800;18.06423600;2022-07-10T09:17:57;16.60;99.90
7598;DHT22;3840;59.32098800;18.06423600;2022-07-10T09:20:29;16.80;99.90
7598;DHT22;3840;59.32098800;18.06423600;2022-07-10T09:22:57;16.80;99.90
7598;DHT22;3840;59.32098800;18.06423600;2022-07-10T09:25:30;16.90;99.90
7598;DHT22;3840;59.32098800;18.06423600;2022-07-10T09:27:56;17.10;99.90
7598;DHT22;3840;59.32098800;18.06423600;2022-07-10T09:30:32;17.10;99.90
7598;DHT22;3840;59.32098800;18.06423600;2022-07-10T09:35:58;17.40;99.90
7598;DHT22;3840;59.32098800;18.06423600;2022-07-10T09:43:45;17.60;99.90
7598;DHT22;3840;59.32098800;18.06423600;2022-07-10T09:46:15;17.80;99.90
7598;DHT22;3840;59.32098800;18.06423600;2022-07-10T09:48:40;17.70;99.90
7598;DHT22;3840;59.32098800;18.06423600;2022-07-10T09:51:09;17.80;99.90
7598;DHT22;3840;59.32098800;18.06423600;2022-07-10T09:53:41;17.60;99.90
7598;DHT22;3840;59.32098800;18.06423600;2022-07-10T09:56:09;17.70;99.90
7598;DHT22;3840;59.32098800;18.06423600;2022-07-10T09:58:35;17.70;99.90
7598;DHT22;3840;59.32098800;18.06423600;2022-07-10T10:01:06;17.90;99.90
7598;DHT22;3840;59.32098800;18.06423600;2022-07-10T10:03:37;18.10;99.90
7598;DHT22;3840;59.32098800;18.06423600;2022-07-10T10:06:11;18.30;99.90
7598;DHT22;3840;59.32098800;18.06423600;2022-07-10T10:08:59;18.30;99.90
7598;DHT22;3840;59.32098800;18.06423600;2022-07-10T10:11:32;18.40;99.90
7598;DHT22;3840;59.32098800;18.06423600;2022-07-10T10:14:01;18.40;99.90
7598;DHT22;3840;59.32098800;18.06423600;2022-07-10T10:16:29;18.30;99.90
7598;DHT22;3840;59.32098800;18.06423600;2022-07-10T10:18:55;17.80;99.90
7598;DHT22;3840;59.32098800;18.06423600;2022-07-10T10:21:40;17.50;99.90
7598;DHT22;3840;59.32098800;18.06423600;2022-07-10T10:24:06;17.10;99.90
7598;DHT22;3840;59.32098800;18.06423600;2022-07-10T10:26:32;17.00;99.90
7598;DHT22;3840;59.32098800;18.06423600;2022-07-10T10:29:00;17.00;99.90
7598;DHT22;3840;59.32098800;18.06423600;2022-07-10T10:31:30;16.80;99.90
7598;DHT22;3840;59.32098800;18.06423600;2022-07-10T10:33:57;16.80;99.90
7598;DHT22;3840;59.32098800;18.06423600;2022-07-10T10:39:20;16.80;99.90
7598;DHT22;3840;59.32098800;18.06423600;2022-07-10T10:41:51;17.00;99.90
7598;DHT22;3840;59.32098800;18.06423600;2022-07-10T10:46:59;17.00;99.90
7598;DHT22;3840;59.32098800;18.06423600;2022-07-10T10:49:54;17.20;99.90
7598;DHT22;3840;59.32098800;18.06423600;2022-07-10T10:52:23;17.40;99.90
7598;DHT22;3840;59.32098800;18.06423600;2022-07-10T10:55:09;17.40;99.90
7598;DHT22;3840;59.32098800;18.06423600;2022-07-10T10:57:38;17.60;99.90
7598;DHT22;3840;59.32098800;18.06423600;2022-07-10T11:00:14;17.70;99.90
7598;DHT22;3840;59.32098800;18.06423600;2022-07-10T11:02:41;17.90;99.90
7598;DHT22;3840;59.32098800;18.06423600;2022-07-10T11:07:55;17.70;99.90
7598;DHT22;3840;59.32098800;18.06423600;2022-07-10T11:10:42;17.70;99.90
7598;DHT22;3840;59.32098800;18.06423600;2022-07-10T11:13:17;17.70;99.90
7598;DHT22;3840;59.32098800;18.06423600;2022-07-10T11:15:45;16.20;99.90
7598;DHT22;3840;59.32098800;18.06423600;2022-07-10T11:20:47;17.90;99.90
7598;DHT22;3840;59.32098800;18.06423600;2022-07-10T11:26:07;17.90;99.90
7598;DHT22;3840;59.32098800;18.06423600;2022-07-10T11:28:58;18.00;99.90
7598;DHT22;3840;59.32098800;18.06423600;2022-07-10T11:31:27;18.10;99.90
7598;DHT22;3840;59.32098800;18.06423600;2022-07-10T11:33:54;18.10;99.90
7598;DHT22;3840;59.32098800;18.06423600;2022-07-10T11:36:25;18.20;99.90
7598;DHT22;3840;59.32098800;18.06423600;2022-07-10T11:39:04;17.90;99.90
7598;DHT22;3840;59.32098800;18.06423600;2022-07-10T11:41:31;18.30;99.90
7598;DHT22;3840;59.32098800;18.06423600;2022-07-10T11:44:01;18.50;99.90
7598;DHT22;3840;59.32098800;18.06423600;2022-07-10T11:46:36;18.50;99.90
7598;DHT22;3840;59.32098800;18.06423600;2022-07-10T11:49:05;18.70;99.90
7598;DHT22;3840;59.32098800;18.06423600;2022-07-10T11:51:36;18.50;99.90
7598;DHT22;3840;59.32098800;18.06423600;2022-07-10T11:54:18;18.40;99.90
7598;DHT22;3840;59.32098800;18.06423600;2022-07-10T11:56:52;18.60;99.90
7598;DHT22;3840;59.32098800;18.06423600;2022-07-10T11:59:24;18.70;99.90
7598;DHT22;3840;59.32098800;18.06423600;2022-07-10T12:01:52;18.50;99.90
7598;DHT22;3840;59.32098800;18.06423600;2022-07-10T12:04:20;18.60;99.90
7598;DHT22;3840;59.32098800;18.06423600;2022-07-10T12:06:51;18.50;99.90
7598;DHT22;3840;59.32098800;18.06423600;2022-07-10T12:09:18;18.50;99.90
7598;DHT22;3840;59.32098800;18.06423600;2022-07-10T12:12:00;18.40;99.90
7598;DHT22;3840;59.32098800;18.06423600;2022-07-10T12:14:26;18.90;99.90
7598;DHT22;3840;59.32098800;18.06423600;2022-07-10T12:16:53;18.80;99.90
7598;DHT22;3840;59.32098800;18.06423600;2022-07-10T12:19:26;18.80;99.90
7598;DHT22;3840;59.32098800;18.06423600;2022-07-10T12:21:54;18.90;99.90
7598;DHT22;3840;59.32098800;18.06423600;2022-07-10T12:24:20;18.70;99.90
7598;DHT22;3840;59.32098800;18.06423600;2022-07-10T12:26:47;18.70;99.90
7598;DHT22;3840;59.32098800;18.06423600;2022-07-10T12:29:24;18.60;99.90
7598;DHT22;3840;59.32098800;18.06423600;2022-07-10T12:31:52;18.70;99.90
7598;DHT22;3840;59.32098800;18.06423600;2022-07-10T12:34:18;18.90;99.90
7598;DHT22;3840;59.32098800;18.06423600;2022-07-10T12:36:51;18.70;99.90
7598;DHT22;3840;59.32098800;18.06423600;2022-07-10T12:39:23;18.60;99.90
7598;DHT22;3840;59.32098800;18.06423600;2022-07-10T12:42:02;18.30;99.90
7598;DHT22;3840;59.32098800;18.06423600;2022-07-10T12:44:42;18.30;99.90
7598;DHT22;3840;59.32098800;18.06423600;2022-07-10T12:47:17;18.40;99.90
7598;DHT22;3840;59.32098800;18.06423600;2022-07-10T12:49:51;18.50;99.90
7598;DHT22;3840;59.32098800;18.06423600;2022-07-10T12:52:22;17.20;99.90
7598;DHT22;3840;59.32098800;18.06423600;2022-07-10T12:54:48;18.20;99.90
7598;DHT22;3840;59.32098800;18.06423600;2022-07-10T12:57:14;18.20;99.90
7598;DHT22;3840;59.32098800;18.06423600;2022-07-10T12:59:40;18.30;99.90
7598;DHT22;3840;59.32098800;18.06423600;2022-07-10T13:02:21;18.40;99.90
7598;DHT22;3840;59.32098800;18.06423600;2022-07-10T13:04:57;18.50;99.90
7598;DHT22;3840;59.32098800;18.06423600;2022-07-10T13:07:33;18.50;99.90
7598;DHT22;3840;59.32098800;18.06423600;2022-07-10T13:10:06;18.30;99.90
7598;DHT22;3840;59.32098800;18.06423600;2022-07-10T13:12:34;18.10;99.90
7598;DHT22;3840;59.32098800;18.06423600;2022-07-10T13:15:01;17.90;99.90
7598;DHT22;3840;59.32098800;18.06423600;2022-07-10T13:17:27;18.10;99.90
7598;DHT22;3840;59.32098800;18.06423600;2022-07-10T13:19:52;18.10;99.90
7598;DHT22;3840;59.32098800;18.06423600;2022-07-10T13:22:18;18.30;99.90
7598;DHT22;3840;59.32098800;18.06423600;2022-07-10T13:24:44;18.40;99.90
7598;DHT22;3840;59.32098800;18.06423600;2022-07-10T13:27:10;18.60;99.90
7598;DHT22;3840;59.32098800;18.06423600;2022-07-10T13:29:35;18.60;99.90
7598;DHT22;3840;59.32098800;18.06423600;2022-07-10T13:32:01;18.60;99.90
7598;DHT22;3840;59.32098800;18.06423600;2022-07-10T13:34:28;18.70;99.90
7598;DHT22;3840;59.32098800;18.06423600;2022-07-10T13:36:55;18.90;99.90
7598;DHT22;3840;59.32098800;18.06423600;2022-07-10T13:39:21;18.80;99.90
7598;DHT22;3840;59.32098800;18.06423600;2022-07-10T13:41:46;18.90;99.90
7598;DHT22;3840;59.32098800;18.06423600;2022-07-10T13:44:12;18.70;99.90
7598;DHT22;3840;59.32098800;18.06423600;2022-07-10T13:46:38;18.60;99.90
7598;DHT22;3840;59.32098800;18.06423600;2022-07-10T13:49:05;18.50;99.90
7598;DHT22;3840;59.32098800;18.06423600;2022-07-10T13:51:31;18.50;99.90
7598;DHT22;3840;59.32098800;18.06423600;2022-07-10T13:53:57;18.50;99.90
7598;DHT22;3840;59.32098800;18.06423600;2022-07-10T13:56:23;18.30;99.90
7598;DHT22;3840;59.32098800;18.06423600;2022-07-10T13:58:51;18.30;99.90